UAL2190 KLAX-KIAH
Flight info
| Callsign | UAL2190 |
|---|---|
| Flight time | N/A |
| Altitude | 350 |
| Route | DOTSS2 CNERY BLH SPTFR Q4 FUSCO DIESL TTORO3 |
| Aircraft | A321/M-V/N |
Departure
| Time | 2026-04-20 22:51 |
|---|---|
| Airport | Los Angeles International Airport (KLAX) |
Arrival
| Time | N/A |
|---|---|
| Airport | George Bush Intercontinental Airport (KIAH) |
| Time | Latitude | Longitude | Altitude | Speed | Heading |
|---|---|---|---|---|---|
| 2026-04-20 22:13 | 33.94167 | -118.39779 | 126 ft | 0 kts | 82° |
| 2026-04-20 22:29 | 33.94165 | -118.39797 | 124 ft | 3 kts | 82° |
| 2026-04-20 22:30 | 33.94161 | -118.39819 | 125 ft | 3 kts | 104° |
| 2026-04-20 22:30 | 33.94169 | -118.39840 | 125 ft | 2 kts | 163° |
| 2026-04-20 22:30 | 33.94170 | -118.39840 | 125 ft | 0 kts | 163° |
| 2026-04-20 22:42 | 33.94130 | -118.39833 | 125 ft | 14 kts | 172° |
| 2026-04-20 22:42 | 33.94042 | -118.39826 | 124 ft | 0 kts | 178° |
| 2026-04-20 22:44 | 33.94010 | -118.39811 | 124 ft | 19 kts | 149° |
| 2026-04-20 22:44 | 33.93986 | -118.39723 | 126 ft | 13 kts | 83° |
| 2026-04-20 22:44 | 33.94005 | -118.39544 | 126 ft | 30 kts | 83° |
| 2026-04-20 22:45 | 33.94038 | -118.39239 | 124 ft | 39 kts | 82° |
| 2026-04-20 22:45 | 33.94053 | -118.39092 | 122 ft | 8 kts | 85° |
| 2026-04-20 22:45 | 33.94015 | -118.39003 | 122 ft | 11 kts | 121° |
| 2026-04-20 22:45 | 33.93992 | -118.38885 | 126 ft | 19 kts | 84° |
| 2026-04-20 22:46 | 33.94008 | -118.38714 | 125 ft | 22 kts | 83° |
| 2026-04-20 22:46 | 33.94028 | -118.38518 | 122 ft | 25 kts | 83° |
| 2026-04-20 22:46 | 33.94049 | -118.38321 | 125 ft | 22 kts | 83° |
| 2026-04-20 22:46 | 33.94067 | -118.38150 | 126 ft | 19 kts | 83° |
| 2026-04-20 22:47 | 33.94076 | -118.38024 | 126 ft | 4 kts | 109° |
| 2026-04-20 22:49 | 33.94036 | -118.38000 | 124 ft | 12 kts | 167° |
| 2026-04-20 22:49 | 33.93982 | -118.38061 | 123 ft | 11 kts | 259° |
| 2026-04-20 22:50 | 33.93981 | -118.38069 | 124 ft | 0 kts | 262° |
| 2026-04-20 22:50 | 33.93981 | -118.38070 | 124 ft | 2 kts | 263° |
| 2026-04-20 22:51 | 33.93949 | -118.38401 | 124 ft | 79 kts | 263° |
| 2026-04-20 22:51 | 33.93851 | -118.39361 | 127 ft | 150 kts | 263° |
| 2026-04-20 22:51 | 33.93716 | -118.40777 | 514 ft | 189 kts | 263° |
| 2026-04-20 22:51 | 33.93508 | -118.42494 | 961 ft | 221 kts | 258° |
| 2026-04-20 22:52 | 33.93235 | -118.44311 | 1959 ft | 222 kts | 259° |
| 2026-04-20 22:52 | 33.92800 | -118.46125 | 2814 ft | 230 kts | 243° |
| 2026-04-20 22:52 | 33.91784 | -118.47644 | 3661 ft | 234 kts | 226° |
| 2026-04-20 22:52 | 33.90725 | -118.49084 | 4826 ft | 233 kts | 229° |
| 2026-04-20 22:53 | 33.89677 | -118.50736 | 5470 ft | 268 kts | 231° |
| 2026-04-20 22:53 | 33.88518 | -118.52597 | 6259 ft | 279 kts | 230° |
| 2026-04-20 22:53 | 33.87360 | -118.54432 | 7212 ft | 269 kts | 230° |
| 2026-04-20 22:53 | 33.86230 | -118.56220 | 8314 ft | 272 kts | 230° |
| 2026-04-20 22:54 | 33.85426 | -118.57398 | 9003 ft | 282 kts | 219° |
| 2026-04-20 22:54 | 33.83586 | -118.58450 | 9459 ft | 316 kts | 189° |
| 2026-04-20 22:54 | 33.81291 | -118.58304 | 10100 ft | 345 kts | 165° |
| 2026-04-20 22:54 | 33.78948 | -118.57361 | 11093 ft | 363 kts | 162° |
| 2026-04-20 22:55 | 33.76504 | -118.56367 | 12130 ft | 379 kts | 163° |
| 2026-04-20 22:55 | 33.73948 | -118.55348 | 13217 ft | 394 kts | 164° |
| 2026-04-20 22:55 | 33.71306 | -118.54306 | 14342 ft | 404 kts | 164° |
| 2026-04-20 22:55 | 33.68664 | -118.53094 | 15589 ft | 412 kts | 152° |
| 2026-04-20 22:56 | 33.66480 | -118.50819 | 16806 ft | 427 kts | 131° |
| 2026-04-20 22:56 | 33.64796 | -118.47838 | 17953 ft | 434 kts | 128° |